Greenbrae, California
Current Conditions -  °F | °C
As of 3:15 PM on Friday 31 Oct 2014 (Local Time) from KDVO Reporting Station
Clear Clear  
Wind Chill: 63°   Ceiling: Unl
Heat Index: 63°   Visibility: NA
Dew Point: 54°   Wind: 3mph
Humidity: 72%   Direction: 180°S
Pressure: 29.79"   Gusts: NA
Location:  37.95°N, 122.52°W
Report Text: KDVO 312215Z AUTO 18003KT CLR 17/12 A2979 RMK AO2
Loading
Personal Weather Stations






























Interactive Weather Map
Tropical Storm Tracking
New forecast layout! Learn more

10-Day Weather Forecast

Advertisements
Track Severe Weather on mobile